createdAt,value
2023-01-07T00:09:22.652Z,969.58
2023-01-07T00:24:24.886Z,969.62
2023-01-07T00:39:27.113Z,969.69
2023-01-07T00:54:29.307Z,969.7
2023-01-07T01:09:31.619Z,969.56
2023-01-07T01:24:33.846Z,969.35
2023-01-07T01:39:36.024Z,969.39
2023-01-07T01:54:38.307Z,969.48
2023-01-07T02:09:40.547Z,969.71
2023-01-07T02:24:42.819Z,969.87
2023-01-07T02:39:45.088Z,969.91
2023-01-07T02:54:47.491Z,969.77
2023-01-07T03:09:49.748Z,969.68
2023-01-07T03:24:52.043Z,969.85
2023-01-07T03:39:54.356Z,970
2023-01-07T03:54:56.570Z,969.98
2023-01-07T04:09:58.776Z,969.9
2023-01-07T04:25:01.072Z,970
2023-01-07T04:40:03.325Z,970.11
2023-01-07T04:55:05.574Z,969.94
2023-01-07T05:10:07.842Z,969.9
2023-01-07T05:25:10.116Z,970.01
2023-01-07T05:40:12.385Z,970.15
2023-01-07T05:55:14.599Z,970.33
2023-01-07T06:10:16.828Z,970.31
2023-01-07T06:25:19.024Z,970.32
2023-01-07T06:40:21.249Z,970.33
2023-01-07T06:55:23.492Z,970.36
2023-01-07T07:10:25.695Z,970.4
2023-01-07T07:25:27.870Z,970.35
2023-01-07T07:40:30.282Z,970.41
2023-01-07T07:55:32.723Z,970.32
2023-01-07T08:10:35.178Z,970.17
2023-01-07T08:25:37.415Z,970.07
2023-01-07T08:40:39.895Z,969.99
2023-01-07T08:55:42.106Z,969.78
2023-01-07T09:10:44.379Z,969.73
2023-01-07T09:25:46.714Z,969.78
2023-01-07T09:40:49.077Z,969.61
2023-01-07T09:56:10.738Z,969.69
2023-01-07T10:11:14.916Z,969.66
2023-01-07T10:26:17.148Z,969.71
2023-01-07T10:41:19.404Z,969.77
2023-01-07T10:56:21.695Z,969.47
2023-01-07T11:11:23.939Z,969.37
2023-01-07T11:26:26.241Z,969.57
2023-01-07T11:41:28.521Z,969.74
2023-01-07T11:56:30.757Z,969.66
2023-01-07T12:11:33.004Z,969.39
2023-01-07T12:26:35.222Z,969.23
2023-01-07T12:41:37.506Z,969.44
2023-01-07T12:56:39.866Z,969.46
2023-01-07T13:11:42.111Z,969.25
2023-01-07T13:26:44.309Z,969.21
2023-01-07T13:41:46.740Z,969.2
2023-01-07T13:56:49.045Z,969.1
2023-01-07T14:11:51.408Z,969
2023-01-07T14:26:53.678Z,968.94
2023-01-07T14:41:56.014Z,968.92
2023-01-07T14:56:58.219Z,968.82
2023-01-07T15:12:00.652Z,968.77
2023-01-07T15:27:02.883Z,968.61
2023-01-07T15:42:05.092Z,968.53
2023-01-07T15:57:07.657Z,968.39
2023-01-07T16:12:09.953Z,968.4
2023-01-07T16:27:12.217Z,968.4
2023-01-07T16:42:14.590Z,968.48
2023-01-07T16:57:16.830Z,968.56
2023-01-07T17:12:19.071Z,968.53
2023-01-07T17:27:21.306Z,968.33
2023-01-07T17:42:23.535Z,968.42
2023-01-07T17:57:25.754Z,968.55
2023-01-07T18:12:27.967Z,968.32
2023-01-07T18:27:30.452Z,968.24
2023-01-07T18:42:32.686Z,968.21
2023-01-07T18:57:35.200Z,968.05
2023-01-07T19:12:37.432Z,967.82
2023-01-07T19:27:39.709Z,967.57
2023-01-07T19:42:42.102Z,967.31
2023-01-07T19:57:44.352Z,967.12
2023-01-07T20:12:46.729Z,966.91
2023-01-07T20:27:49.017Z,966.89
2023-01-07T20:42:51.279Z,966.37
2023-01-07T20:57:53.509Z,965.92
2023-01-07T21:12:55.909Z,965.78
2023-01-07T21:27:58.133Z,965.7
2023-01-07T21:43:00.326Z,965.43
2023-01-07T21:58:02.593Z,965.29
2023-01-07T22:13:04.863Z,965.33
2023-01-07T22:28:07.139Z,965.31
2023-01-07T22:43:09.535Z,965.11
2023-01-07T22:58:11.774Z,964.69
2023-01-07T23:13:14.042Z,964.47
2023-01-07T23:28:16.386Z,964.29
2023-01-07T23:43:18.802Z,964.27
2023-01-07T23:58:21.019Z,964.08
